sensor_id;sensor_type;location;lat;lon;timestamp;P1;durP1;ratioP1;P2;durP2;ratioP2
23236;SDS011;11787;52.018;8.570;2022-08-11T00:01:37;8.07;;;2.92;;
23236;SDS011;11787;52.018;8.570;2022-08-11T00:04:10;4.10;;;2.40;;
23236;SDS011;11787;52.018;8.570;2022-08-11T00:06:38;5.85;;;2.90;;
23236;SDS011;11787;52.018;8.570;2022-08-11T00:09:06;4.03;;;2.70;;
23236;SDS011;11787;52.018;8.570;2022-08-11T00:11:37;5.05;;;2.67;;
23236;SDS011;11787;52.018;8.570;2022-08-11T00:14:14;4.32;;;2.70;;
23236;SDS011;11787;52.018;8.570;2022-08-11T00:16:54;4.22;;;2.42;;
23236;SDS011;11787;52.018;8.570;2022-08-11T00:19:22;4.88;;;2.50;;
23236;SDS011;11787;52.018;8.570;2022-08-11T00:21:50;3.45;;;2.20;;
23236;SDS011;11787;52.018;8.570;2022-08-11T00:24:17;4.40;;;2.17;;
23236;SDS011;11787;52.018;8.570;2022-08-11T00:26:53;5.43;;;2.60;;
23236;SDS011;11787;52.018;8.570;2022-08-11T00:29:19;3.17;;;2.25;;
23236;SDS011;11787;52.018;8.570;2022-08-11T00:31:47;3.33;;;2.38;;
23236;SDS011;11787;52.018;8.570;2022-08-11T00:34:22;4.03;;;2.40;;
23236;SDS011;11787;52.018;8.570;2022-08-11T00:36:55;3.83;;;2.30;;
23236;SDS011;11787;52.018;8.570;2022-08-11T00:39:27;3.10;;;2.20;;
23236;SDS011;11787;52.018;8.570;2022-08-11T00:56:04;4.60;;;2.30;;
23236;SDS011;11787;52.018;8.570;2022-08-11T01:01:22;3.40;;;2.22;;
23236;SDS011;11787;52.018;8.570;2022-08-11T01:12:39;3.50;;;2.45;;
23236;SDS011;11787;52.018;8.570;2022-08-11T01:15:56;3.03;;;2.53;;
23236;SDS011;11787;52.018;8.570;2022-08-11T01:24:39;5.93;;;2.42;;
23236;SDS011;11787;52.018;8.570;2022-08-11T01:33:06;5.43;;;2.58;;
23236;SDS011;11787;52.018;8.570;2022-08-11T01:44:34;2.85;;;2.20;;
23236;SDS011;11787;52.018;8.570;2022-08-11T01:47:31;4.70;;;2.60;;
23236;SDS011;11787;52.018;8.570;2022-08-11T01:50:20;2.83;;;2.40;;
23236;SDS011;11787;52.018;8.570;2022-08-11T01:53:08;4.05;;;2.40;;
23236;SDS011;11787;52.018;8.570;2022-08-11T02:13:35;4.15;;;3.10;;
23236;SDS011;11787;52.018;8.570;2022-08-11T02:15:55;4.20;;;2.50;;
23236;SDS011;11787;52.018;8.570;2022-08-11T02:19:53;4.60;;;2.78;;
23236;SDS011;11787;52.018;8.570;2022-08-11T02:34:58;4.85;;;2.88;;
23236;SDS011;11787;52.018;8.570;2022-08-11T02:37:06;3.22;;;2.80;;
23236;SDS011;11787;52.018;8.570;2022-08-11T02:39:45;4.82;;;2.92;;
23236;SDS011;11787;52.018;8.570;2022-08-11T02:42:22;4.80;;;2.60;;
23236;SDS011;11787;52.018;8.570;2022-08-11T02:45:07;5.22;;;3.38;;
23236;SDS011;11787;52.018;8.570;2022-08-11T02:51:11;4.85;;;2.97;;
23236;SDS011;11787;52.018;8.570;2022-08-11T03:13:18;5.10;;;3.20;;
23236;SDS011;11787;52.018;8.570;2022-08-11T03:19:10;6.18;;;3.25;;
23236;SDS011;11787;52.018;8.570;2022-08-11T03:22:08;4.07;;;3.38;;
23236;SDS011;11787;52.018;8.570;2022-08-11T03:24:57;3.70;;;3.00;;
23236;SDS011;11787;52.018;8.570;2022-08-11T03:30:12;5.53;;;2.95;;
23236;SDS011;11787;52.018;8.570;2022-08-11T03:32:51;4.88;;;3.40;;
23236;SDS011;11787;52.018;8.570;2022-08-11T03:35:39;4.32;;;3.28;;
23236;SDS011;11787;52.018;8.570;2022-08-11T03:38:18;8.35;;;3.10;;
23236;SDS011;11787;52.018;8.570;2022-08-11T03:41:05;6.20;;;3.05;;
23236;SDS011;11787;52.018;8.570;2022-08-11T03:47:00;5.78;;;3.22;;
23236;SDS011;11787;52.018;8.570;2022-08-11T04:07:31;5.93;;;3.28;;
23236;SDS011;11787;52.018;8.570;2022-08-11T04:35:39;6.22;;;3.72;;
23236;SDS011;11787;52.018;8.570;2022-08-11T04:44:54;6.05;;;2.88;;
23236;SDS011;11787;52.018;8.570;2022-08-11T04:53:18;7.28;;;3.20;;
23236;SDS011;11787;52.018;8.570;2022-08-11T04:56:16;3.95;;;3.30;;
23236;SDS011;11787;52.018;8.570;2022-08-11T05:02:09;6.68;;;3.38;;
23236;SDS011;11787;52.018;8.570;2022-08-11T05:05:03;5.85;;;3.40;;
23236;SDS011;11787;52.018;8.570;2022-08-11T05:13:10;7.88;;;3.67;;
23236;SDS011;11787;52.018;8.570;2022-08-11T05:16:07;4.30;;;3.30;;
23236;SDS011;11787;52.018;8.570;2022-08-11T05:18:54;5.93;;;3.13;;
23236;SDS011;11787;52.018;8.570;2022-08-11T05:21:40;7.53;;;3.38;;
23236;SDS011;11787;52.018;8.570;2022-08-11T05:30:11;4.50;;;3.20;;
23236;SDS011;11787;52.018;8.570;2022-08-11T05:36:27;5.53;;;3.50;;
23236;SDS011;11787;52.018;8.570;2022-08-11T05:39:02;5.05;;;3.20;;
23236;SDS011;11787;52.018;8.570;2022-08-11T05:42:07;5.43;;;3.20;;
23236;SDS011;11787;52.018;8.570;2022-08-11T05:44:53;5.63;;;3.42;;
23236;SDS011;11787;52.018;8.570;2022-08-11T05:47:42;6.57;;;3.50;;
23236;SDS011;11787;52.018;8.570;2022-08-11T05:50:31;6.80;;;3.17;;
23236;SDS011;11787;52.018;8.570;2022-08-11T05:53:15;5.55;;;3.53;;
23236;SDS011;11787;52.018;8.570;2022-08-11T05:56:03;7.43;;;3.40;;
23236;SDS011;11787;52.018;8.570;2022-08-11T09:09:32;2.50;;;1.52;;
23236;SDS011;11787;52.018;8.570;2022-08-11T09:11:58;4.40;;;1.80;;
23236;SDS011;11787;52.018;8.570;2022-08-11T09:14:26;3.15;;;1.90;;
23236;SDS011;11787;52.018;8.570;2022-08-11T09:17:17;6.13;;;1.55;;
23236;SDS011;11787;52.018;8.570;2022-08-11T09:30:11;4.20;;;2.00;;
23236;SDS011;11787;52.018;8.570;2022-08-11T09:32:37;4.00;;;2.05;;
23236;SDS011;11787;52.018;8.570;2022-08-11T09:35:05;6.20;;;2.08;;
23236;SDS011;11787;52.018;8.570;2022-08-11T10:05:33;3.75;;;1.60;;
23236;SDS011;11787;52.018;8.570;2022-08-11T10:08:19;3.47;;;1.70;;
23236;SDS011;11787;52.018;8.570;2022-08-11T10:10:50;7.68;;;1.98;;
23236;SDS011;11787;52.018;8.570;2022-08-11T10:13:17;3.08;;;1.70;;
23236;SDS011;11787;52.018;8.570;2022-08-11T10:15:46;4.43;;;2.03;;
23236;SDS011;11787;52.018;8.570;2022-08-11T10:18:15;4.47;;;1.73;;
23236;SDS011;11787;52.018;8.570;2022-08-11T10:21:08;2.20;;;1.90;;
23236;SDS011;11787;52.018;8.570;2022-08-11T10:23:43;4.80;;;1.98;;
23236;SDS011;11787;52.018;8.570;2022-08-11T10:26:28;3.97;;;1.70;;
23236;SDS011;11787;52.018;8.570;2022-08-11T10:29:14;5.80;;;2.00;;
23236;SDS011;11787;52.018;8.570;2022-08-11T10:32:00;6.57;;;1.75;;
23236;SDS011;11787;52.018;8.570;2022-08-11T10:34:46;2.45;;;1.75;;
23236;SDS011;11787;52.018;8.570;2022-08-11T10:37:13;5.70;;;1.80;;
23236;SDS011;11787;52.018;8.570;2022-08-11T10:39:41;3.85;;;2.08;;
23236;SDS011;11787;52.018;8.570;2022-08-11T10:42:09;4.05;;;1.73;;
23236;SDS011;11787;52.018;8.570;2022-08-11T10:44:54;3.78;;;1.90;;
23236;SDS011;11787;52.018;8.570;2022-08-11T10:47:22;4.72;;;1.92;;
23236;SDS011;11787;52.018;8.570;2022-08-11T10:49:59;4.45;;;1.80;;
23236;SDS011;11787;52.018;8.570;2022-08-11T10:52:46;2.10;;;1.80;;
23236;SDS011;11787;52.018;8.570;2022-08-11T10:55:33;4.63;;;1.60;;
23236;SDS011;11787;52.018;8.570;2022-08-11T10:58:18;5.60;;;1.80;;
23236;SDS011;11787;52.018;8.570;2022-08-11T11:01:04;4.68;;;1.70;;
23236;SDS011;11787;52.018;8.570;2022-08-11T11:03:31;4.68;;;1.90;;
23236;SDS011;11787;52.018;8.570;2022-08-11T11:24:14;3.55;;;1.63;;
23236;SDS011;11787;52.018;8.570;2022-08-11T11:26:52;2.60;;;1.70;;
23236;SDS011;11787;52.018;8.570;2022-08-11T11:29:38;1.80;;;1.50;;
23236;SDS011;11787;52.018;8.570;2022-08-11T11:37:40;3.70;;;1.60;;
23236;SDS011;11787;52.018;8.570;2022-08-11T11:40:09;2.38;;;1.52;;
23236;SDS011;11787;52.018;8.570;2022-08-11T11:42:40;3.88;;;1.85;;
23236;SDS011;11787;52.018;8.570;2022-08-11T11:45:08;3.00;;;1.42;;
23236;SDS011;11787;52.018;8.570;2022-08-11T11:47:36;2.90;;;1.73;;
23236;SDS011;11787;52.018;8.570;2022-08-11T11:50:04;5.82;;;2.20;;
23236;SDS011;11787;52.018;8.570;2022-08-11T11:52:32;2.33;;;1.52;;
23236;SDS011;11787;52.018;8.570;2022-08-11T11:54:58;4.80;;;1.70;;
23236;SDS011;11787;52.018;8.570;2022-08-11T11:57:26;4.05;;;2.00;;
23236;SDS011;11787;52.018;8.570;2022-08-11T12:00:11;4.97;;;2.55;;
23236;SDS011;11787;52.018;8.570;2022-08-11T12:02:57;5.45;;;2.95;;
23236;SDS011;11787;52.018;8.570;2022-08-11T12:05:25;3.95;;;2.55;;
23236;SDS011;11787;52.018;8.570;2022-08-11T12:07:52;3.80;;;1.67;;
23236;SDS011;11787;52.018;8.570;2022-08-11T12:10:41;2.65;;;1.45;;
23236;SDS011;11787;52.018;8.570;2022-08-11T12:13:12;3.72;;;1.90;;
23236;SDS011;11787;52.018;8.570;2022-08-11T12:15:58;4.95;;;1.70;;
23236;SDS011;11787;52.018;8.570;2022-08-11T12:18:28;2.67;;;1.48;;
23236;SDS011;11787;52.018;8.570;2022-08-11T12:20:57;3.35;;;1.65;;
23236;SDS011;11787;52.018;8.570;2022-08-11T12:23:25;3.08;;;1.40;;
23236;SDS011;11787;52.018;8.570;2022-08-11T12:26:09;2.42;;;1.67;;
23236;SDS011;11787;52.018;8.570;2022-08-11T12:28:59;2.15;;;1.50;;
23236;SDS011;11787;52.018;8.570;2022-08-11T12:31:25;2.22;;;1.70;;
23236;SDS011;11787;52.018;8.570;2022-08-11T12:33:58;3.28;;;1.60;;
23236;SDS011;11787;52.018;8.570;2022-08-11T12:36:25;2.33;;;1.65;;
23236;SDS011;11787;52.018;8.570;2022-08-11T12:38:51;3.47;;;1.60;;
23236;SDS011;11787;52.018;8.570;2022-08-11T12:41:19;2.50;;;1.88;;
23236;SDS011;11787;52.018;8.570;2022-08-11T12:44:04;2.13;;;1.55;;
23236;SDS011;11787;52.018;8.570;2022-08-11T12:46:53;5.43;;;1.60;;
23236;SDS011;11787;52.018;8.570;2022-08-11T12:49:21;2.92;;;1.63;;
23236;SDS011;11787;52.018;8.570;2022-08-11T12:52:10;4.95;;;2.05;;
23236;SDS011;11787;52.018;8.570;2022-08-11T12:55:02;3.00;;;2.00;;
23236;SDS011;11787;52.018;8.570;2022-08-11T12:57:46;6.80;;;1.95;;
23236;SDS011;11787;52.018;8.570;2022-08-11T13:00:31;2.08;;;1.38;;
23236;SDS011;11787;52.018;8.570;2022-08-11T13:03:18;4.18;;;1.60;;
23236;SDS011;11787;52.018;8.570;2022-08-11T13:06:03;3.00;;;1.67;;
23236;SDS011;11787;52.018;8.570;2022-08-11T13:08:34;5.50;;;1.50;;
23236;SDS011;11787;52.018;8.570;2022-08-11T13:11:01;2.45;;;1.50;;
23236;SDS011;11787;52.018;8.570;2022-08-11T13:13:47;3.35;;;1.55;;
23236;SDS011;11787;52.018;8.570;2022-08-11T13:16:14;6.45;;;1.58;;
23236;SDS011;11787;52.018;8.570;2022-08-11T13:18:41;3.35;;;1.40;;
23236;SDS011;11787;52.018;8.570;2022-08-11T13:21:10;1.92;;;1.40;;
23236;SDS011;11787;52.018;8.570;2022-08-11T13:23:38;5.65;;;1.50;;
23236;SDS011;11787;52.018;8.570;2022-08-11T13:26:04;2.53;;;1.42;;
23236;SDS011;11787;52.018;8.570;2022-08-11T13:28:33;2.13;;;1.50;;
23236;SDS011;11787;52.018;8.570;2022-08-11T13:31:00;5.80;;;1.65;;
23236;SDS011;11787;52.018;8.570;2022-08-11T13:33:42;4.05;;;2.28;;
23236;SDS011;11787;52.018;8.570;2022-08-11T13:36:10;2.80;;;1.50;;
23236;SDS011;11787;52.018;8.570;2022-08-11T13:38:39;1.75;;;1.60;;
23236;SDS011;11787;52.018;8.570;2022-08-11T13:41:07;2.75;;;1.50;;
23236;SDS011;11787;52.018;8.570;2022-08-11T13:43:52;4.55;;;1.65;;
23236;SDS011;11787;52.018;8.570;2022-08-11T13:46:19;3.03;;;1.58;;
23236;SDS011;11787;52.018;8.570;2022-08-11T13:48:51;2.13;;;1.50;;
23236;SDS011;11787;52.018;8.570;2022-08-11T13:51:19;3.78;;;1.65;;
23236;SDS011;11787;52.018;8.570;2022-08-11T13:54:01;2.85;;;1.35;;
23236;SDS011;11787;52.018;8.570;2022-08-11T13:56:27;4.00;;;1.52;;
23236;SDS011;11787;52.018;8.570;2022-08-11T13:58:55;3.72;;;1.40;;
23236;SDS011;11787;52.018;8.570;2022-08-11T14:01:23;4.07;;;1.60;;
23236;SDS011;11787;52.018;8.570;2022-08-11T14:03:53;2.70;;;1.45;;
23236;SDS011;11787;52.018;8.570;2022-08-11T14:06:21;4.35;;;1.50;;
23236;SDS011;11787;52.018;8.570;2022-08-11T14:08:47;2.70;;;1.38;;
23236;SDS011;11787;52.018;8.570;2022-08-11T14:11:17;3.08;;;1.40;;
23236;SDS011;11787;52.018;8.570;2022-08-11T14:14:02;1.50;;;1.15;;
23236;SDS011;11787;52.018;8.570;2022-08-11T14:16:31;2.65;;;1.20;;
23236;SDS011;11787;52.018;8.570;2022-08-11T14:19:02;5.53;;;3.58;;
23236;SDS011;11787;52.018;8.570;2022-08-11T14:21:33;2.90;;;1.52;;
23236;SDS011;11787;52.018;8.570;2022-08-11T14:24:19;1.85;;;1.25;;
23236;SDS011;11787;52.018;8.570;2022-08-11T14:26:46;2.70;;;1.40;;
23236;SDS011;11787;52.018;8.570;2022-08-11T14:29:16;2.72;;;1.50;;
23236;SDS011;11787;52.018;8.570;2022-08-11T14:31:49;2.97;;;1.65;;
23236;SDS011;11787;52.018;8.570;2022-08-11T14:34:19;4.35;;;1.50;;
23236;SDS011;11787;52.018;8.570;2022-08-11T14:36:48;1.65;;;1.23;;
23236;SDS011;11787;52.018;8.570;2022-08-11T14:39:18;3.40;;;1.33;;
23236;SDS011;11787;52.018;8.570;2022-08-11T14:42:06;2.08;;;1.23;;
23236;SDS011;11787;52.018;8.570;2022-08-11T14:44:53;4.20;;;1.50;;
23236;SDS011;11787;52.018;8.570;2022-08-11T14:47:28;2.15;;;1.27;;
23236;SDS011;11787;52.018;8.570;2022-08-11T14:49:58;5.78;;;1.48;;
23236;SDS011;11787;52.018;8.570;2022-08-11T14:52:26;2.53;;;1.60;;
23236;SDS011;11787;52.018;8.570;2022-08-11T14:54:54;1.77;;;1.30;;
23236;SDS011;11787;52.018;8.570;2022-08-11T14:57:39;3.55;;;1.20;;
23236;SDS011;11787;52.018;8.570;2022-08-11T15:00:07;3.40;;;1.52;;
23236;SDS011;11787;52.018;8.570;2022-08-11T15:02:37;2.38;;;1.45;;
23236;SDS011;11787;52.018;8.570;2022-08-11T15:05:23;2.63;;;1.65;;
23236;SDS011;11787;52.018;8.570;2022-08-11T15:07:50;2.13;;;1.42;;
23236;SDS011;11787;52.018;8.570;2022-08-11T15:10:17;3.47;;;1.65;;
23236;SDS011;11787;52.018;8.570;2022-08-11T15:12:44;2.97;;;1.55;;
23236;SDS011;11787;52.018;8.570;2022-08-11T15:15:11;3.22;;;1.67;;
23236;SDS011;11787;52.018;8.570;2022-08-11T15:17:58;1.95;;;1.58;;
23236;SDS011;11787;52.018;8.570;2022-08-11T15:20:28;2.22;;;1.38;;
23236;SDS011;11787;52.018;8.570;2022-08-11T15:23:13;2.50;;;1.45;;
23236;SDS011;11787;52.018;8.570;2022-08-11T15:25:58;3.38;;;1.48;;
23236;SDS011;11787;52.018;8.570;2022-08-11T15:28:28;3.90;;;1.38;;
23236;SDS011;11787;52.018;8.570;2022-08-11T15:31:16;2.13;;;1.42;;
23236;SDS011;11787;52.018;8.570;2022-08-11T15:33:49;2.47;;;1.40;;
23236;SDS011;11787;52.018;8.570;2022-08-11T15:36:36;1.67;;;1.30;;
23236;SDS011;11787;52.018;8.570;2022-08-11T15:39:27;2.10;;;1.52;;
23236;SDS011;11787;52.018;8.570;2022-08-11T15:42:24;3.47;;;1.55;;
23236;SDS011;11787;52.018;8.570;2022-08-11T15:45:08;3.70;;;1.48;;
23236;SDS011;11787;52.018;8.570;2022-08-11T15:47:55;8.60;;;1.98;;
23236;SDS011;11787;52.018;8.570;2022-08-11T15:50:27;4.70;;;1.80;;
23236;SDS011;11787;52.018;8.570;2022-08-11T15:52:58;3.45;;;1.52;;
23236;SDS011;11787;52.018;8.570;2022-08-11T15:55:27;2.55;;;1.20;;
23236;SDS011;11787;52.018;8.570;2022-08-11T15:57:56;2.58;;;1.73;;
23236;SDS011;11787;52.018;8.570;2022-08-11T16:00:44;2.67;;;1.75;;
23236;SDS011;11787;52.018;8.570;2022-08-11T16:03:32;2.38;;;1.50;;
23236;SDS011;11787;52.018;8.570;2022-08-11T16:06:34;2.42;;;1.55;;
23236;SDS011;11787;52.018;8.570;2022-08-11T16:09:08;3.45;;;1.60;;
23236;SDS011;11787;52.018;8.570;2022-08-11T16:11:35;3.40;;;1.65;;
23236;SDS011;11787;52.018;8.570;2022-08-11T16:14:02;3.15;;;1.77;;
23236;SDS011;11787;52.018;8.570;2022-08-11T16:16:48;4.78;;;1.60;;
23236;SDS011;11787;52.018;8.570;2022-08-11T16:19:17;1.75;;;1.65;;
23236;SDS011;11787;52.018;8.570;2022-08-11T16:21:43;3.42;;;1.75;;
23236;SDS011;11787;52.018;8.570;2022-08-11T16:24:14;3.35;;;1.60;;
23236;SDS011;11787;52.018;8.570;2022-08-11T16:26:41;2.45;;;1.67;;
23236;SDS011;11787;52.018;8.570;2022-08-11T16:29:09;3.67;;;1.55;;
23236;SDS011;11787;52.018;8.570;2022-08-11T16:31:35;4.35;;;1.60;;
23236;SDS011;11787;52.018;8.570;2022-08-11T16:34:02;2.35;;;1.50;;
23236;SDS011;11787;52.018;8.570;2022-08-11T16:36:29;5.15;;;1.88;;
23236;SDS011;11787;52.018;8.570;2022-08-11T16:39:16;5.28;;;1.77;;
23236;SDS011;11787;52.018;8.570;2022-08-11T16:41:43;2.38;;;1.40;;
23236;SDS011;11787;52.018;8.570;2022-08-11T16:44:30;6.57;;;1.77;;
23236;SDS011;11787;52.018;8.570;2022-08-11T16:47:15;1.80;;;1.50;;
23236;SDS011;11787;52.018;8.570;2022-08-11T16:49:47;5.72;;;1.67;;
23236;SDS011;11787;52.018;8.570;2022-08-11T16:54:42;4.43;;;2.17;;
23236;SDS011;11787;52.018;8.570;2022-08-11T16:57:09;2.85;;;1.60;;
23236;SDS011;11787;52.018;8.570;2022-08-11T16:59:58;4.88;;;1.65;;
23236;SDS011;11787;52.018;8.570;2022-08-11T17:02:31;2.97;;;1.70;;
23236;SDS011;11787;52.018;8.570;2022-08-11T17:05:19;3.25;;;1.67;;
23236;SDS011;11787;52.018;8.570;2022-08-11T17:08:07;5.53;;;1.65;;
23236;SDS011;11787;52.018;8.570;2022-08-11T17:10:56;5.60;;;1.92;;
23236;SDS011;11787;52.018;8.570;2022-08-11T17:13:47;4.90;;;1.73;;
23236;SDS011;11787;52.018;8.570;2022-08-11T17:16:20;2.67;;;1.60;;
23236;SDS011;11787;52.018;8.570;2022-08-11T17:18:59;3.22;;;1.70;;
23236;SDS011;11787;52.018;8.570;2022-08-11T17:21:31;4.30;;;1.88;;
23236;SDS011;11787;52.018;8.570;2022-08-11T17:24:27;5.43;;;1.75;;
23236;SDS011;11787;52.018;8.570;2022-08-11T17:26:55;3.33;;;1.80;;
23236;SDS011;11787;52.018;8.570;2022-08-11T17:29:37;4.22;;;1.73;;
23236;SDS011;11787;52.018;8.570;2022-08-11T17:32:29;8.10;;;3.72;;
23236;SDS011;11787;52.018;8.570;2022-08-11T17:40:22;4.75;;;1.88;;
23236;SDS011;11787;52.018;8.570;2022-08-11T17:42:52;3.25;;;1.70;;
23236;SDS011;11787;52.018;8.570;2022-08-11T17:45:39;3.75;;;1.70;;
23236;SDS011;11787;52.018;8.570;2022-08-11T17:48:32;4.53;;;1.80;;
23236;SDS011;11787;52.018;8.570;2022-08-11T17:51:08;2.45;;;1.70;;
23236;SDS011;11787;52.018;8.570;2022-08-11T17:53:40;4.95;;;1.85;;
23236;SDS011;11787;52.018;8.570;2022-08-11T17:56:26;3.03;;;1.67;;
23236;SDS011;11787;52.018;8.570;2022-08-11T17:59:12;4.18;;;2.00;;
23236;SDS011;11787;52.018;8.570;2022-08-11T18:01:59;3.58;;;1.60;;
23236;SDS011;11787;52.018;8.570;2022-08-11T18:04:48;4.25;;;1.98;;
23236;SDS011;11787;52.018;8.570;2022-08-11T18:07:19;3.15;;;1.70;;
23236;SDS011;11787;52.018;8.570;2022-08-11T18:10:05;5.32;;;2.10;;
23236;SDS011;11787;52.018;8.570;2022-08-11T18:12:51;3.65;;;1.95;;
23236;SDS011;11787;52.018;8.570;2022-08-11T18:15:38;4.80;;;1.75;;
23236;SDS011;11787;52.018;8.570;2022-08-11T18:18:25;4.40;;;1.88;;
23236;SDS011;11787;52.018;8.570;2022-08-11T18:21:10;2.58;;;1.48;;
23236;SDS011;11787;52.018;8.570;2022-08-11T18:23:58;3.40;;;1.80;;
23236;SDS011;11787;52.018;8.570;2022-08-11T18:26:50;4.18;;;1.95;;
23236;SDS011;11787;52.018;8.570;2022-08-11T18:29:37;2.90;;;1.80;;
23236;SDS011;11787;52.018;8.570;2022-08-11T18:32:24;4.13;;;1.90;;
23236;SDS011;11787;52.018;8.570;2022-08-11T18:35:10;2.83;;;1.90;;
23236;SDS011;11787;52.018;8.570;2022-08-11T18:37:57;5.55;;;2.10;;
23236;SDS011;11787;52.018;8.570;2022-08-11T18:40:45;5.32;;;1.70;;
23236;SDS011;11787;52.018;8.570;2022-08-11T18:43:31;5.68;;;1.90;;
23236;SDS011;11787;52.018;8.570;2022-08-11T18:46:19;3.30;;;1.65;;
23236;SDS011;11787;52.018;8.570;2022-08-11T18:49:09;7.43;;;1.90;;
23236;SDS011;11787;52.018;8.570;2022-08-11T18:51:57;2.70;;;2.00;;
23236;SDS011;11787;52.018;8.570;2022-08-11T18:54:43;6.03;;;2.20;;
23236;SDS011;11787;52.018;8.570;2022-08-11T18:57:30;4.88;;;2.33;;
23236;SDS011;11787;52.018;8.570;2022-08-11T19:00:18;2.55;;;1.90;;
23236;SDS011;11787;52.018;8.570;2022-08-11T19:03:02;3.95;;;1.73;;
23236;SDS011;11787;52.018;8.570;2022-08-11T19:05:48;6.13;;;1.77;;
23236;SDS011;11787;52.018;8.570;2022-08-11T19:08:34;2.83;;;1.70;;
23236;SDS011;11787;52.018;8.570;2022-08-11T19:11:39;4.38;;;1.80;;
23236;SDS011;11787;52.018;8.570;2022-08-11T19:17:46;3.35;;;1.80;;
23236;SDS011;11787;52.018;8.570;2022-08-11T19:20:32;5.90;;;2.00;;
23236;SDS011;11787;52.018;8.570;2022-08-11T19:23:20;6.88;;;2.05;;
23236;SDS011;11787;52.018;8.570;2022-08-11T19:26:17;4.50;;;1.90;;
23236;SDS011;11787;52.018;8.570;2022-08-11T19:29:02;5.80;;;1.90;;
23236;SDS011;11787;52.018;8.570;2022-08-11T19:31:49;2.20;;;1.85;;
23236;SDS011;11787;52.018;8.570;2022-08-11T19:34:34;3.53;;;2.20;;
23236;SDS011;11787;52.018;8.570;2022-08-11T19:37:19;7.43;;;2.10;;
23236;SDS011;11787;52.018;8.570;2022-08-11T19:40:07;4.00;;;2.00;;
23236;SDS011;11787;52.018;8.570;2022-08-11T19:42:52;2.83;;;2.05;;
23236;SDS011;11787;52.018;8.570;2022-08-11T19:45:39;3.90;;;2.30;;
23236;SDS011;11787;52.018;8.570;2022-08-11T19:48:25;5.25;;;2.90;;
23236;SDS011;11787;52.018;8.570;2022-08-11T19:51:11;6.60;;;2.90;;
23236;SDS011;11787;52.018;8.570;2022-08-11T19:53:56;5.25;;;2.97;;
23236;SDS011;11787;52.018;8.570;2022-08-11T19:56:42;6.93;;;2.90;;
23236;SDS011;11787;52.018;8.570;2022-08-11T19:59:27;4.03;;;2.35;;
23236;SDS011;11787;52.018;8.570;2022-08-11T20:02:12;4.25;;;2.70;;
23236;SDS011;11787;52.018;8.570;2022-08-11T20:04:57;6.55;;;2.60;;
23236;SDS011;11787;52.018;8.570;2022-08-11T20:07:42;4.63;;;3.00;;
23236;SDS011;11787;52.018;8.570;2022-08-11T20:10:27;5.38;;;3.03;;
23236;SDS011;11787;52.018;8.570;2022-08-11T20:13:13;4.32;;;2.58;;
23236;SDS011;11787;52.018;8.570;2022-08-11T20:15:59;4.13;;;3.45;;
23236;SDS011;11787;52.018;8.570;2022-08-11T20:18:45;4.10;;;2.88;;
23236;SDS011;11787;52.018;8.570;2022-08-11T20:21:33;4.78;;;3.25;;
23236;SDS011;11787;52.018;8.570;2022-08-11T20:24:20;4.70;;;2.80;;
23236;SDS011;11787;52.018;8.570;2022-08-11T20:27:04;4.07;;;2.80;;
23236;SDS011;11787;52.018;8.570;2022-08-11T20:29:51;7.75;;;2.80;;
23236;SDS011;11787;52.018;8.570;2022-08-11T20:32:38;4.20;;;2.78;;
23236;SDS011;11787;52.018;8.570;2022-08-11T20:35:24;9.20;;;3.17;;
23236;SDS011;11787;52.018;8.570;2022-08-11T20:38:09;4.85;;;2.80;;
23236;SDS011;11787;52.018;8.570;2022-08-11T20:40:56;4.07;;;2.95;;
23236;SDS011;11787;52.018;8.570;2022-08-11T20:43:41;6.68;;;3.22;;
23236;SDS011;11787;52.018;8.570;2022-08-11T20:46:27;6.13;;;2.97;;
23236;SDS011;11787;52.018;8.570;2022-08-11T20:49:12;4.78;;;3.30;;
23236;SDS011;11787;52.018;8.570;2022-08-11T20:51:58;6.43;;;3.30;;
23236;SDS011;11787;52.018;8.570;2022-08-11T20:54:43;5.50;;;3.03;;
23236;SDS011;11787;52.018;8.570;2022-08-11T20:57:28;6.57;;;3.72;;
23236;SDS011;11787;52.018;8.570;2022-08-11T21:00:13;7.97;;;3.30;;
23236;SDS011;11787;52.018;8.570;2022-08-11T21:02:57;3.53;;;2.90;;
23236;SDS011;11787;52.018;8.570;2022-08-11T21:05:41;6.68;;;3.15;;
23236;SDS011;11787;52.018;8.570;2022-08-11T21:08:34;4.05;;;3.00;;
23236;SDS011;11787;52.018;8.570;2022-08-11T21:11:20;5.63;;;2.65;;
23236;SDS011;11787;52.018;8.570;2022-08-11T21:14:06;5.88;;;3.20;;
23236;SDS011;11787;52.018;8.570;2022-08-11T21:16:56;5.82;;;2.90;;
23236;SDS011;11787;52.018;8.570;2022-08-11T21:19:44;5.82;;;3.22;;
23236;SDS011;11787;52.018;8.570;2022-08-11T21:22:35;7.53;;;3.47;;
23236;SDS011;11787;52.018;8.570;2022-08-11T21:25:29;5.30;;;3.28;;
23236;SDS011;11787;52.018;8.570;2022-08-11T21:28:18;4.53;;;3.35;;
23236;SDS011;11787;52.018;8.570;2022-08-11T21:31:04;5.90;;;3.20;;
23236;SDS011;11787;52.018;8.570;2022-08-11T21:33:50;4.63;;;3.45;;
23236;SDS011;11787;52.018;8.570;2022-08-11T21:36:36;8.38;;;3.50;;
23236;SDS011;11787;52.018;8.570;2022-08-11T21:39:22;4.68;;;3.17;;
23236;SDS011;11787;52.018;8.570;2022-08-11T21:42:08;7.53;;;3.50;;
23236;SDS011;11787;52.018;8.570;2022-08-11T21:44:54;5.22;;;3.38;;
23236;SDS011;11787;52.018;8.570;2022-08-11T21:47:40;6.18;;;3.22;;
23236;SDS011;11787;52.018;8.570;2022-08-11T21:50:24;5.75;;;3.75;;
23236;SDS011;11787;52.018;8.570;2022-08-11T21:58:39;10.30;;;3.10;;
23236;SDS011;11787;52.018;8.570;2022-08-11T22:01:23;4.30;;;3.35;;
23236;SDS011;11787;52.018;8.570;2022-08-11T22:04:09;7.20;;;3.70;;
23236;SDS011;11787;52.018;8.570;2022-08-11T22:06:54;7.15;;;3.70;;
23236;SDS011;11787;52.018;8.570;2022-08-11T22:09:39;5.80;;;3.55;;
23236;SDS011;11787;52.018;8.570;2022-08-11T22:12:23;7.18;;;3.20;;
23236;SDS011;11787;52.018;8.570;2022-08-11T22:17:52;5.97;;;3.75;;
23236;SDS011;11787;52.018;8.570;2022-08-11T22:20:36;5.00;;;3.17;;
23236;SDS011;11787;52.018;8.570;2022-08-11T22:23:21;7.35;;;3.38;;
23236;SDS011;11787;52.018;8.570;2022-08-11T22:26:08;6.75;;;3.75;;
23236;SDS011;11787;52.018;8.570;2022-08-11T22:28:53;6.55;;;3.95;;
23236;SDS011;11787;52.018;8.570;2022-08-11T22:34:23;4.20;;;3.42;;
23236;SDS011;11787;52.018;8.570;2022-08-11T22:37:09;4.78;;;3.50;;
23236;SDS011;11787;52.018;8.570;2022-08-11T22:39:54;5.70;;;3.90;;
23236;SDS011;11787;52.018;8.570;2022-08-11T22:42:40;6.15;;;3.42;;
23236;SDS011;11787;52.018;8.570;2022-08-11T22:45:26;6.57;;;3.78;;
23236;SDS011;11787;52.018;8.570;2022-08-11T22:48:10;7.32;;;3.80;;
23236;SDS011;11787;52.018;8.570;2022-08-11T22:50:57;5.63;;;3.50;;
23236;SDS011;11787;52.018;8.570;2022-08-11T22:53:43;6.30;;;3.78;;
23236;SDS011;11787;52.018;8.570;2022-08-11T22:56:28;7.70;;;3.83;;
23236;SDS011;11787;52.018;8.570;2022-08-11T22:59:14;5.55;;;3.75;;
23236;SDS011;11787;52.018;8.570;2022-08-11T23:02:01;5.72;;;3.50;;
23236;SDS011;11787;52.018;8.570;2022-08-11T23:04:47;6.00;;;3.50;;
23236;SDS011;11787;52.018;8.570;2022-08-11T23:07:33;7.55;;;3.80;;
23236;SDS011;11787;52.018;8.570;2022-08-11T23:10:22;4.40;;;3.50;;
23236;SDS011;11787;52.018;8.570;2022-08-11T23:13:07;5.85;;;3.63;;
23236;SDS011;11787;52.018;8.570;2022-08-11T23:15:52;7.13;;;3.45;;
23236;SDS011;11787;52.018;8.570;2022-08-11T23:18:38;5.25;;;3.10;;
23236;SDS011;11787;52.018;8.570;2022-08-11T23:21:22;5.90;;;3.45;;
23236;SDS011;11787;52.018;8.570;2022-08-11T23:24:09;6.03;;;3.28;;
23236;SDS011;11787;52.018;8.570;2022-08-11T23:26:54;3.42;;;2.90;;
23236;SDS011;11787;52.018;8.570;2022-08-11T23:29:39;3.65;;;3.25;;
23236;SDS011;11787;52.018;8.570;2022-08-11T23:32:24;6.10;;;3.17;;
23236;SDS011;11787;52.018;8.570;2022-08-11T23:35:11;5.78;;;3.40;;
23236;SDS011;11787;52.018;8.570;2022-08-11T23:37:56;5.68;;;3.50;;
23236;SDS011;11787;52.018;8.570;2022-08-11T23:40:43;5.10;;;3.30;;
23236;SDS011;11787;52.018;8.570;2022-08-11T23:43:28;4.35;;;3.30;;